Time;durP1;ratioP1;P1;durP2;ratioP2;P2;SDS_P1;SDS_P2;PMS_P1;PMS_P2;Temp;Humidity;BMP_temperature;BMP_pressure;BME280_temperature;BME280_humidity;BME280_pressure;Samples;Min_cycle;Max_cycle;Signal;HPM_P1;HPM_P2
2022/11/30 00:00:55;;;;;;;;;26.75;21.00;;;;;7.36;87.99;101416.31;6247412;22;46132;-90
2022/11/30 00:03:21;;;;;;;;;31.00;26.25;;;;;7.38;87.97;101410.19;6250478;22;45379;-91
2022/11/30 00:05:50;;;;;;;;;23.00;20.75;;;;;5.46;87.58;101097.88;6221178;22;45329;-91
2022/11/30 00:08:16;;;;;;;;;33.00;25.50;;;;;5.55;87.75;101097.09;6221245;22;45302;-90
2022/11/30 00:10:42;;;;;;;;;27.00;24.50;;;;;5.66;88.10;101105.03;6249629;22;46440;-90
2022/11/30 00:13:08;;;;;;;;;30.00;27.25;;;;;6.17;88.41;101203.47;6231594;22;45400;-91
2022/11/30 00:15:35;;;;;;;;;30.25;24.25;;;;;5.18;87.82;101032.94;6227477;22;45346;-90
2022/11/30 00:18:00;;;;;;;;;34.25;28.00;;;;;5.46;86.89;101071.66;6225414;22;45540;-90
2022/11/30 00:20:28;;;;;;;;;31.75;26.25;;;;;6.51;87.60;101264.16;6223423;22;47177;-91
2022/11/30 00:22:54;;;;;;;;;30.75;27.25;;;;;6.62;87.21;101263.31;6217479;22;45604;-90
2022/11/30 00:25:20;;;;;;;;;31.25;25.75;;;;;6.39;87.51;101227.25;6245379;22;45195;-91
2022/11/30 00:27:45;;;;;;;;;31.50;23.75;;;;;5.24;87.46;101030.38;6229709;22;45502;-93
2022/11/30 00:30:11;;;;;;;;;31.00;24.50;;;;;6.46;87.55;101242.22;6222227;22;47119;-90
2022/11/30 00:32:37;;;;;;;;;26.50;24.50;;;;;7.40;88.02;101394.41;6226057;22;45198;-93
2022/11/30 00:35:03;;;;;;;;;27.00;24.50;;;;;7.41;87.63;101414.56;6220533;22;45230;-90
2022/11/30 00:37:28;;;;;;;;;27.00;21.00;;;;;7.39;87.55;101377.72;6221458;22;45458;-91
2022/11/30 00:39:55;;;;;;;;;28.50;26.50;;;;;6.25;87.37;101184.28;6255096;22;45530;-92
2022/11/30 00:42:21;;;;;;;;;28.25;25.00;;;;;5.98;87.42;101149.06;6198799;22;45394;-90
2022/11/30 00:44:46;;;;;;;;;26.75;25.75;;;;;5.11;87.33;100985.72;6233918;22;45342;-90
2022/11/30 00:47:12;;;;;;;;;28.00;23.50;;;;;6.58;87.83;101237.03;6239271;22;44781;-92
2022/11/30 00:49:38;;;;;;;;;26.75;24.75;;;;;5.82;87.46;101109.56;6211205;22;46612;-94
2022/11/30 00:52:04;;;;;;;;;30.75;27.50;;;;;7.20;87.35;101339.06;6226112;22;45826;-94
2022/11/30 00:54:29;;;;;;;;;37.75;30.75;;;;;6.96;87.43;101338.03;6225603;22;45315;-93
2022/11/30 00:56:55;;;;;;;;;25.25;20.75;;;;;7.37;87.85;101366.34;6203413;22;45133;-96
2022/11/30 00:59:21;;;;;;;;;30.25;26.25;;;;;7.18;87.13;101338.16;6223911;22;45403;-93
2022/11/30 01:01:46;;;;;;;;;33.00;29.50;;;;;6.56;87.78;101233.53;6228476;22;45202;-95
2022/11/30 01:04:13;;;;;;;;;25.25;21.50;;;;;6.28;87.74;101205.31;6229562;22;44663;-94
2022/11/30 01:06:39;;;;;;;;;32.25;30.50;;;;;6.44;86.71;101208.91;6229714;22;44860;-94
2022/11/30 01:09:06;;;;;;;;;32.50;27.00;;;;;6.74;87.50;101280.06;6231826;22;46629;-93
2022/11/30 01:11:31;;;;;;;;;22.25;22.25;;;;;6.17;87.74;101192.09;6236937;22;45324;-92
2022/11/30 01:13:59;;;;;;;;;30.75;24.75;;;;;6.07;87.82;101164.88;6207226;22;45121;-92
2022/11/30 01:16:29;;;;;;;;;26.25;25.00;;;;;7.35;87.37;101399.66;6234087;22;44817;-92
2022/11/30 01:18:54;;;;;;;;;28.00;25.75;;;;;6.60;87.53;101263.31;6228499;22;48055;-92
2022/11/30 01:21:22;;;;;;;;;29.25;24.50;;;;;6.17;86.69;101181.59;6226277;22;45812;-90
2022/11/30 01:23:48;;;;;;;;;30.00;26.00;;;;;6.10;87.17;101178.03;6220119;22;45418;-89
2022/11/30 01:26:15;;;;;;;;;21.50;18.00;;;;;6.18;86.68;101184.25;6218281;22;45458;-90
2022/11/30 01:28:45;;;;;;;;;22.00;22.00;;;;;6.65;87.30;101273.84;6252429;22;46423;-89
2022/11/30 01:31:13;;;;;;;;;31.25;23.75;;;;;6.58;86.79;101265.94;6248979;22;45371;-90
2022/11/30 01:33:40;;;;;;;;;35.00;29.50;;;;;7.29;87.57;101366.28;6226206;22;45287;-89
2022/11/30 01:36:15;;;;;;;;;29.50;24.75;;;;;6.10;87.29;101183.28;6248791;22;45464;-89
2022/11/30 01:38:43;;;;;;;;;29.75;25.75;;;;;6.45;86.61;101240.44;6222306;22;47350;-90
2022/11/30 01:41:11;;;;;;;;;27.25;22.25;;;;;6.25;87.18;101207.91;6247241;22;45387;-89
2022/11/30 01:44:15;;;;;;;;;27.50;23.75;;;;;7.29;87.67;101378.56;6255508;22;45393;-88
2022/11/30 01:46:53;;;;;;;;;25.00;22.25;;;;;6.90;86.83;101323.09;6125040;23;45353;-89
2022/11/30 01:49:30;;;;;;;;;27.25;25.25;;;;;6.03;87.31;101174.50;6127159;23;46621;-90
2022/11/30 01:51:59;;;;;;;;;34.50;25.25;;;;;7.25;86.67;101385.53;6128358;23;45180;-89
2022/11/30 01:54:31;;;;;;;;;31.00;22.75;;;;;6.02;86.60;101203.34;6126551;23;45375;-89
2022/11/30 01:57:05;;;;;;;;;23.50;21.25;;;;;5.73;86.60;101134.84;6127262;23;45255;-89
2022/11/30 01:59:31;;;;;;;;;25.00;20.25;;;;;6.21;86.81;101223.63;6122633;23;45350;-90
2022/11/30 02:01:57;;;;;;;;;22.75;17.00;;;;;7.22;86.92;101392.53;6121540;23;45410;-90
2022/11/30 02:04:28;;;;;;;;;21.00;20.75;;;;;5.91;86.76;101161.25;6121429;23;45292;-91
2022/11/30 02:06:56;;;;;;;;;28.25;22.50;;;;;7.20;87.13;101389.91;6125984;23;44808;-90
2022/11/30 02:09:23;;;;;;;;;26.50;24.25;;;;;7.21;87.22;101390.78;6126340;23;45386;-90
2022/11/30 02:11:50;;;;;;;;;15.25;14.50;;;;;6.54;86.72;101268.53;6121668;23;45517;-90
2022/11/30 02:14:25;;;;;;;;;18.25;17.25;;;;;5.59;86.12;101109.38;6124288;23;45428;-90
2022/11/30 02:17:27;;;;;;;;;16.50;14.50;;;;;7.22;87.12;101380.25;6128628;22;45511;-90
2022/11/30 02:20:30;;;;;;;;;17.00;15.75;;;;;7.21;86.71;101381.16;6219963;22;46174;-91
2022/11/30 02:23:21;;;;;;;;;14.50;14.50;;;;;7.17;87.34;101379.38;6188889;22;45406;-90
2022/11/30 02:26:11;;;;;;;;;17.50;15.75;;;;;7.20;87.25;101383.78;6223626;22;45421;-90
2022/11/30 02:28:47;;;;;;;;;19.00;16.75;;;;;7.07;86.75;101364.38;6218964;22;45575;-91
2022/11/30 02:31:24;;;;;;;;;16.25;14.00;;;;;6.08;86.66;101207.78;6218489;22;45514;-90
2022/11/30 02:33:51;;;;;;;;;17.50;13.75;;;;;4.98;86.46;101037.13;6195880;22;45633;-90
2022/11/30 02:36:19;;;;;;;;;19.25;18.25;;;;;6.78;86.54;101317.75;6191938;22;45307;-90
2022/11/30 02:38:45;;;;;;;;;15.25;14.00;;;;;5.92;85.76;101201.47;6194088;22;45505;-90
2022/11/30 02:41:10;;;;;;;;;8.25;7.75;;;;;6.08;86.51;101223.53;6195153;22;48003;-90
2022/11/30 02:43:36;;;;;;;;;13.00;11.50;;;;;6.38;86.58;101271.03;6197352;22;45461;-90
2022/11/30 02:46:20;;;;;;;;;15.75;13.00;;;;;7.11;86.12;101380.19;6225091;22;45300;-93
2022/11/30 02:48:49;;;;;;;;;15.00;14.00;;;;;6.50;86.39;101295.63;6233238;22;45191;-92
2022/11/30 02:51:20;;;;;;;;;13.50;13.50;;;;;6.87;86.55;101364.25;6210766;22;46377;-94
2022/11/30 02:53:47;;;;;;;;;13.00;13.00;;;;;6.33;86.88;101266.59;6230180;22;45186;-93
2022/11/30 02:56:14;;;;;;;;;20.25;19.50;;;;;7.04;86.11;101377.50;6229251;22;45214;-94
2022/11/30 02:58:40;;;;;;;;;15.00;11.50;;;;;5.63;85.93;101134.78;6252495;22;45240;-93
2022/11/30 03:01:06;;;;;;;;;18.75;14.25;;;;;5.96;85.86;101196.25;6256618;22;45542;-94
2022/11/30 03:03:32;;;;;;;;;18.00;15.50;;;;;6.20;85.86;101247.25;6252861;22;45292;-93
2022/11/30 03:05:57;;;;;;;;;23.25;19.25;;;;;6.09;86.36;101223.53;6230266;22;45261;-93
2022/11/30 03:08:28;;;;;;;;;17.25;14.25;;;;;6.42;86.09;101295.56;6233100;22;45255;-94
2022/11/30 03:10:53;;;;;;;;;13.50;11.50;;;;;5.12;85.96;101076.59;6232124;22;45393;-95
2022/11/30 03:13:20;;;;;;;;;18.75;15.75;;;;;5.64;86.62;101186.34;6253585;22;45381;-93
2022/11/30 03:15:46;;;;;;;;;17.00;12.75;;;;;6.10;86.00;101258.53;6228530;22;45270;-93
2022/11/30 03:18:13;;;;;;;;;14.00;12.75;;;;;6.16;86.50;101277.81;6221910;22;45226;-91
2022/11/30 03:20:42;;;;;;;;;15.50;15.50;;;;;6.47;86.87;101313.97;6222552;22;47232;-90
2022/11/30 03:23:07;;;;;;;;;13.75;12.75;;;;;5.25;85.93;101113.41;6245861;22;45190;-90
2022/11/30 03:25:33;;;;;;;;;19.75;17.50;;;;;5.72;86.33;101198.66;6219660;22;45264;-90
2022/11/30 03:28:00;;;;;;;;;11.00;9.50;;;;;5.91;85.86;101229.47;6220826;22;45283;-90
2022/11/30 03:30:25;;;;;;;;;13.00;13.00;;;;;5.69;86.03;101213.50;6229692;22;46826;-90
2022/11/30 03:32:51;;;;;;;;;18.75;17.00;;;;;5.19;86.81;101127.31;6233054;22;45347;-89
2022/11/30 03:35:17;;;;;;;;;16.50;13.00;;;;;6.38;86.56;101333.19;6222514;22;45370;-90
2022/11/30 03:37:42;;;;;;;;;18.00;16.25;;;;;6.02;86.83;101289.97;6219726;22;45496;-90
2022/11/30 03:40:08;;;;;;;;;21.25;17.50;;;;;5.45;86.48;101180.03;6225614;22;47232;-90
2022/11/30 03:42:33;;;;;;;;;18.00;15.25;;;;;6.71;86.44;101410.53;6254447;22;45375;-89
2022/11/30 03:44:59;;;;;;;;;17.25;14.25;;;;;5.64;86.05;101228.31;6255641;22;45420;-89
2022/11/30 03:47:24;;;;;;;;;18.25;18.25;;;;;6.79;85.84;101414.13;6223206;22;45366;-89
2022/11/30 03:49:50;;;;;;;;;17.75;15.50;;;;;5.32;85.88;101179.00;6217113;22;47747;-89
2022/11/30 03:52:15;;;;;;;;;17.25;15.75;;;;;5.66;85.66;101247.59;6216591;22;45282;-89
2022/11/30 03:54:41;;;;;;;;;23.50;16.00;;;;;5.97;86.19;101307.41;6225514;22;45451;-90
2022/11/30 03:57:07;;;;;;;;;18.25;16.00;;;;;6.11;86.53;101350.41;6224639;22;45261;-89
2022/11/30 03:59:32;;;;;;;;;17.00;15.50;;;;;6.08;86.66;101344.25;6214692;22;46208;-91
2022/11/30 04:01:58;;;;;;;;;16.75;13.00;;;;;5.46;86.69;101239.47;6211882;22;45231;-91
2022/11/30 04:04:23;;;;;;;;;15.50;13.25;;;;;6.60;86.01;101439.31;6214429;22;45287;-89
2022/11/30 04:06:50;;;;;;;;;15.50;10.50;;;;;5.43;86.15;101236.81;6200856;22;44742;-90
2022/11/30 04:09:15;;;;;;;;;16.75;14.00;;;;;5.29;85.75;101220.91;6196739;22;47001;-90
2022/11/30 04:11:41;;;;;;;;;7.50;6.00;;;;;5.36;85.83;101255.97;6189601;22;45331;-90
2022/11/30 04:14:06;;;;;;;;;10.75;8.50;;;;;5.94;86.32;101365.94;6218381;22;45425;-90
2022/11/30 04:16:32;;;;;;;;;7.00;7.00;;;;;5.27;86.21;101266.34;6191834;22;45321;-90
2022/11/30 04:18:57;;;;;;;;;12.00;11.00;;;;;4.90;86.26;101234.41;6220708;22;46238;-90
2022/11/30 04:21:23;;;;;;;;;13.00;10.00;;;;;5.37;86.72;101310.16;6192861;22;45353;-90
2022/11/30 04:23:48;;;;;;;;;13.25;9.00;;;;;5.00;86.97;101254.63;6216154;22;45431;-90
2022/11/30 04:26:15;;;;;;;;;12.75;10.50;;;;;5.16;86.52;101287.16;6187442;22;45413;-91
2022/11/30 04:28:41;;;;;;;;;9.25;7.75;;;;;5.08;86.62;101279.19;6214290;22;46128;-91
2022/11/30 04:31:08;;;;;;;;;10.75;8.00;;;;;5.09;86.63;101282.72;6217604;22;45416;-90
2022/11/30 04:33:33;;;;;;;;;11.00;8.75;;;;;5.33;86.99;101329.34;6218358;22;45275;-90
2022/11/30 04:36:02;;;;;;;;;11.25;8.50;;;;;5.54;86.33;101372.44;6201721;22;45454;-90
2022/11/30 04:38:28;;;;;;;;;15.50;8.00;;;;;4.27;86.59;101177.63;6202003;22;47224;-89
2022/11/30 04:40:54;;;;;;;;;12.50;10.00;;;;;4.36;86.83;101212.69;6225242;22;45306;-88
2022/11/30 04:43:20;;;;;;;;;9.25;8.00;;;;;5.19;86.89;101338.75;6222578;22;45349;-88
2022/11/30 04:45:45;;;;;;;;;8.00;7.00;;;;;5.19;86.91;101343.97;6216981;22;45253;-89
2022/11/30 04:48:11;;;;;;;;;8.75;7.75;;;;;5.61;86.96;101417.13;6215828;22;47328;-91
2022/11/30 04:50:38;;;;;;;;;7.25;7.25;;;;;5.56;87.53;101402.16;6216485;22;45281;-90
2022/11/30 04:53:04;;;;;;;;;7.50;7.50;;;;;4.65;86.96;101257.63;6215277;22;45257;-90
2022/11/30 04:55:29;;;;;;;;;8.75;8.50;;;;;4.85;87.25;101291.09;6189512;22;45503;-90
2022/11/30 04:57:58;;;;;;;;;6.50;6.25;;;;;4.70;86.68;101255.06;6188431;22;46852;-90
2022/11/30 05:00:23;;;;;;;;;10.25;9.25;;;;;4.18;86.48;101185.34;6187298;22;45298;-90
2022/11/30 05:02:49;;;;;;;;;11.75;11.75;;;;;5.51;86.63;101407.34;6187009;22;45391;-90
2022/11/30 05:05:14;;;;;;;;;13.25;12.00;;;;;5.88;86.13;101478.72;6215287;22;45327;-90
2022/11/30 05:07:40;;;;;;;;;10.75;7.75;;;;;4.95;86.90;101314.84;6222120;22;46016;-90
2022/11/30 05:10:07;;;;;;;;;13.50;12.25;;;;;4.97;86.01;101318.34;6199235;22;45136;-89
2022/11/30 05:12:33;;;;;;;;;10.75;8.75;;;;;4.57;86.39;101254.00;6193495;22;45452;-89
2022/11/30 05:14:58;;;;;;;;;11.75;7.50;;;;;5.08;86.63;101342.09;6215992;22;45320;-91
2022/11/30 05:17:24;;;;;;;;;11.00;8.50;;;;;5.49;86.76;101417.81;6190109;22;47106;-90
2022/11/30 05:19:49;;;;;;;;;10.25;8.50;;;;;4.08;86.59;101197.41;6193600;22;45413;-91
2022/11/30 05:22:15;;;;;;;;;10.00;9.00;;;;;4.16;86.76;101194.91;6189071;22;45442;-92
2022/11/30 05:24:40;;;;;;;;;8.00;7.00;;;;;4.74;86.81;101312.75;6188622;22;45308;-90
2022/11/30 05:27:06;;;;;;;;;6.75;6.75;;;;;5.62;86.53;101460.84;6187804;22;47279;-90
2022/11/30 05:29:33;;;;;;;;;7.00;7.00;;;;;4.60;86.50;101285.47;6219899;22;45409;-91
2022/11/30 05:31:59;;;;;;;;;12.00;8.00;;;;;3.89;85.94;101169.19;6199572;22;45295;-90
2022/11/30 05:34:25;;;;;;;;;9.25;8.75;;;;;5.14;86.24;101381.47;6223342;22;45413;-90
2022/11/30 05:36:50;;;;;;;;;10.50;8.00;;;;;5.51;87.13;101455.47;6192433;22;46811;-89
2022/11/30 05:39:16;;;;;;;;;10.25;6.50;;;;;3.66;86.43;101133.06;6192594;22;45978;-90
2022/11/30 05:41:41;;;;;;;;;9.00;7.50;;;;;5.55;86.53;101468.63;6196231;22;45213;-90
2022/11/30 05:44:09;;;;;;;;;7.75;7.25;;;;;4.29;86.71;101256.16;6198087;22;45505;-90
2022/11/30 05:46:36;;;;;;;;;9.50;8.75;;;;;4.02;86.70;101218.19;6195699;22;47138;-90
2022/11/30 05:49:01;;;;;;;;;9.50;6.00;;;;;5.05;87.23;101388.34;6189229;22;45378;-91
2022/11/30 05:51:27;;;;;;;;;8.00;7.00;;;;;3.88;86.67;101189.19;6192205;22;45295;-91
2022/11/30 05:53:52;;;;;;;;;9.50;8.25;;;;;3.99;86.91;101220.78;6190697;22;45332;-90
2022/11/30 05:56:21;;;;;;;;;9.00;9.00;;;;;4.17;86.74;101245.50;6204767;22;46826;-91
2022/11/30 05:58:48;;;;;;;;;9.25;9.25;;;;;5.43;86.73;101458.81;6210224;22;44613;-89
2022/11/30 06:01:19;;;;;;;;;7.00;6.00;;;;;4.22;86.81;101263.06;6204893;22;45256;-90
2022/11/30 06:03:44;;;;;;;;;6.00;6.00;;;;;5.44;86.79;101466.72;6190898;22;45378;-89
2022/11/30 06:06:10;;;;;;;;;7.25;6.75;;;;;5.44;86.54;101457.97;6212779;22;47190;-90
2022/11/30 06:08:35;;;;;;;;;7.50;6.00;;;;;4.37;86.76;101282.47;6194246;22;45253;-91
2022/11/30 06:11:01;;;;;;;;;11.00;8.75;;;;;4.58;86.84;101309.00;6224321;22;45358;-88
2022/11/30 06:13:26;;;;;;;;;9.25;7.00;;;;;5.45;87.16;101457.09;6193358;22;45558;-90
2022/11/30 06:15:52;;;;;;;;;7.25;6.75;;;;;4.92;86.98;101374.16;6220091;22;45635;-91
2022/11/30 06:18:17;;;;;;;;;12.25;8.50;;;;;4.95;86.60;101382.03;6192207;22;45444;-91
2022/11/30 06:20:44;;;;;;;;;12.50;11.00;;;;;5.48;87.09;101458.03;6220568;22;45268;-91
2022/11/30 06:23:09;;;;;;;;;10.25;10.25;;;;;4.69;86.32;101329.25;6196910;22;45399;-90
2022/11/30 06:25:35;;;;;;;;;7.25;7.00;;;;;3.86;86.33;101184.81;6190377;22;46796;-89
2022/11/30 06:28:00;;;;;;;;;8.00;8.00;;;;;5.23;87.06;101404.34;6217356;22;45369;-90
2022/11/30 06:30:26;;;;;;;;;10.25;7.25;;;;;5.55;86.48;101471.25;6223753;22;45346;-90
2022/11/30 06:32:51;;;;;;;;;11.50;10.50;;;;;4.48;86.58;101285.25;6225266;22;45417;-90
2022/11/30 06:35:19;;;;;;;;;13.25;9.25;;;;;5.54;86.15;101453.72;6214371;22;46189;-89
2022/11/30 06:37:45;;;;;;;;;10.25;9.25;;;;;4.42;86.35;101286.94;6216181;22;45382;-88
2022/11/30 06:40:13;;;;;;;;;16.75;11.25;;;;;4.84;86.83;101354.81;6195007;22;45706;-89
2022/11/30 06:42:41;;;;;;;;;18.50;14.75;;;;;5.54;87.04;101466.84;6193317;22;45335;-90
2022/11/30 06:45:09;;;;;;;;;11.50;8.00;;;;;5.09;86.95;101395.41;6194780;22;46045;-90
2022/11/30 06:48:12;;;;;;;;;16.75;12.00;;;;;5.55;86.48;101479.09;6227523;22;45279;-94
2022/11/30 06:50:38;;;;;;;;;11.75;9.00;;;;;4.51;86.78;101295.78;6180865;22;45386;-89
2022/11/30 06:53:04;;;;;;;;;13.25;12.00;;;;;5.22;86.68;101407.81;6189794;22;45438;-90
2022/11/30 06:55:31;;;;;;;;;11.75;11.50;;;;;5.08;86.65;101376.16;6194938;22;47242;-90
2022/11/30 06:58:05;;;;;;;;;10.50;8.00;;;;;5.16;86.55;101392.00;6191587;22;45207;-90
2022/11/30 07:00:35;;;;;;;;;11.00;8.00;;;;;4.39;86.97;101271.19;6226281;22;45280;-92
2022/11/30 07:03:04;;;;;;;;;17.00;13.00;;;;;5.63;86.95;101490.59;6227354;22;45321;-94
2022/11/30 07:05:33;;;;;;;;;12.50;11.25;;;;;5.65;86.52;101479.25;6201574;22;46245;-91
2022/11/30 07:07:59;;;;;;;;;16.25;13.00;;;;;4.44;87.17;101276.50;6223288;22;45497;-92
2022/11/30 07:10:25;;;;;;;;;17.25;12.00;;;;;4.58;86.85;101290.66;6202603;22;45180;-92
2022/11/30 07:12:50;;;;;;;;;12.00;12.00;;;;;5.01;86.91;101376.03;6197716;22;45346;-91
2022/11/30 07:15:16;;;;;;;;;6.75;6.00;;;;;3.64;86.58;101133.88;6220161;22;46233;-90
2022/11/30 07:17:41;;;;;;;;;12.00;9.25;;;;;5.37;86.54;101436.00;6192877;22;45519;-89
2022/11/30 07:20:07;;;;;;;;;10.50;8.75;;;;;5.73;87.33;101479.38;6220907;22;45381;-90
2022/11/30 07:22:33;;;;;;;;;18.00;12.75;;;;;5.02;87.23;101368.19;6188810;22;45385;-90
2022/11/30 07:27:42;;;;;;;;;15.50;12.25;;;;;5.79;86.73;101479.47;6216505;22;45586;-89
2022/11/30 07:30:08;;;;;;;;;13.75;13.75;;;;;5.44;86.56;101426.50;6195611;22;45200;-89
2022/11/30 07:32:33;;;;;;;;;21.00;16.00;;;;;5.08;86.48;101375.28;6220062;22;45257;-89
2022/11/30 07:34:59;;;;;;;;;16.25;12.50;;;;;4.60;86.32;101274.97;6215203;22;46146;-88
2022/11/30 07:37:25;;;;;;;;;15.25;14.75;;;;;5.88;86.46;101484.81;6222929;22;45287;-91
2022/11/30 07:39:50;;;;;;;;;15.50;14.00;;;;;4.20;86.85;101220.25;6195758;22;45305;-90
2022/11/30 07:42:16;;;;;;;;;20.00;16.75;;;;;4.99;86.09;101355.03;6190047;22;45468;-91
2022/11/30 07:44:42;;;;;;;;;23.50;21.25;;;;;5.91;86.53;101509.38;6220564;22;46270;-90
2022/11/30 07:47:07;;;;;;;;;21.00;17.50;;;;;4.73;85.91;101308.38;6188443;22;45306;-91
2022/11/30 07:49:33;;;;;;;;;16.75;13.25;;;;;4.62;86.63;101295.09;6189223;22;45362;-90
2022/11/30 07:51:58;;;;;;;;;20.00;17.50;;;;;5.95;86.79;101512.06;6218165;22;45286;-88
2022/11/30 07:54:24;;;;;;;;;16.50;13.50;;;;;4.73;86.58;101292.66;6189641;22;47545;-90
2022/11/30 07:56:49;;;;;;;;;20.50;17.75;;;;;4.07;86.58;101179.94;6216834;22;45354;-90
2022/11/30 07:59:16;;;;;;;;;11.25;11.25;;;;;6.02;86.72;101521.78;6187486;22;45714;-91
2022/11/30 08:01:41;;;;;;;;;14.75;14.25;;;;;5.25;86.71;101376.41;6189938;22;45424;-91
2022/11/30 08:04:07;;;;;;;;;16.75;14.25;;;;;5.28;86.47;101393.91;6215692;22;46123;-90
2022/11/30 08:06:32;;;;;;;;;20.00;15.75;;;;;5.26;86.60;101382.53;6190662;22;45341;-90
2022/11/30 08:09:00;;;;;;;;;18.50;17.25;;;;;5.64;86.71;101435.53;6221167;22;45304;-89
2022/11/30 08:11:30;;;;;;;;;17.25;14.00;;;;;4.78;86.41;101322.44;6189940;22;45410;-89
2022/11/30 08:13:55;;;;;;;;;13.50;12.75;;;;;5.71;86.55;101465.38;6189219;22;47229;-89
2022/11/30 08:16:23;;;;;;;;;14.50;13.50;;;;;5.23;85.98;101372.88;6191151;22;45262;-89
2022/11/30 08:18:49;;;;;;;;;24.50;14.00;;;;;4.83;86.04;101308.50;6196298;22;45392;-90
2022/11/30 08:21:18;;;;;;;;;19.75;17.75;;;;;5.79;87.05;101461.09;6218138;22;45406;-91
2022/11/30 08:23:46;;;;;;;;;17.75;17.25;;;;;5.78;86.12;101448.81;6219413;22;45597;-89
2022/11/30 08:26:24;;;;;;;;;13.75;12.50;;;;;4.36;85.97;101216.16;6194164;22;45549;-90
2022/11/30 08:28:50;;;;;;;;;19.00;13.25;;;;;6.26;85.70;101528.25;6218995;22;45328;-90
2022/11/30 08:31:38;;;;;;;;;18.00;15.50;;;;;5.05;85.77;101336.78;6190885;22;45511;-89
2022/11/30 08:34:06;;;;;;;;;24.00;16.75;;;;;5.05;85.93;101347.28;6214228;22;47137;-89
2022/11/30 08:36:32;;;;;;;;;17.50;14.00;;;;;4.88;85.83;101309.47;6194415;22;45752;-90
2022/11/30 08:38:59;;;;;;;;;13.75;11.75;;;;;5.36;85.59;101384.44;6190730;22;45346;-91
2022/11/30 08:41:25;;;;;;;;;24.00;18.00;;;;;6.21;85.62;101541.31;6166848;22;45633;-89
2022/11/30 08:43:51;;;;;;;;;23.00;18.25;;;;;6.15;86.05;101535.97;6222579;22;45129;-90
2022/11/30 08:46:19;;;;;;;;;20.75;14.25;;;;;4.83;85.93;101326.84;6193763;22;45221;-90
2022/11/30 08:48:48;;;;;;;;;13.75;11.25;;;;;4.22;85.97;101213.31;6190188;22;45566;-90
2022/11/30 08:51:16;;;;;;;;;14.75;13.25;;;;;4.25;86.20;101215.09;6197823;22;45380;-90
2022/11/30 08:53:43;;;;;;;;;17.00;13.50;;;;;4.52;86.48;101255.66;6217615;22;47259;-90
2022/11/30 08:56:15;;;;;;;;;14.75;11.75;;;;;5.41;86.69;101403.72;6219885;22;45254;-90
2022/11/30 08:58:41;;;;;;;;;17.75;15.50;;;;;5.48;85.65;101415.19;6218951;22;45224;-89
2022/11/30 09:01:18;;;;;;;;;19.25;15.50;;;;;5.20;86.49;101358.88;6248439;22;45577;-90
2022/11/30 09:03:45;;;;;;;;;16.50;16.50;;;;;5.07;86.31;101319.38;6228749;22;48453;-88
2022/11/30 09:06:17;;;;;;;;;18.25;15.00;;;;;5.92;85.88;101451.66;6258699;22;45320;-89
2022/11/30 09:08:48;;;;;;;;;22.75;17.50;;;;;6.32;86.26;101528.31;6259966;22;44634;-88
2022/11/30 09:11:28;;;;;;;;;24.25;18.75;;;;;6.49;85.80;101546.03;6256335;22;45333;-89
2022/11/30 09:13:56;;;;;;;;;22.00;17.00;;;;;4.43;85.85;101189.22;6252657;22;45492;-88
2022/11/30 09:16:23;;;;;;;;;16.75;16.25;;;;;6.19;86.08;101506.25;6221295;22;45444;-89
2022/11/30 09:18:49;;;;;;;;;22.00;17.50;;;;;5.67;86.08;101397.97;6253053;22;45289;-90
2022/11/30 09:21:17;;;;;;;;;21.75;17.00;;;;;4.89;86.09;101256.19;6224128;22;45175;-91
2022/11/30 09:23:47;;;;;;;;;21.25;18.25;;;;;6.17;86.03;101486.13;6224869;22;46309;-94
2022/11/30 09:26:16;;;;;;;;;23.25;19.00;;;;;6.27;85.84;101488.00;6224824;22;45421;-90
2022/11/30 09:28:48;;;;;;;;;25.00;19.25;;;;;6.75;86.63;101554.22;6259980;22;44727;-93
2022/11/30 09:31:17;;;;;;;;;23.75;18.00;;;;;4.79;85.82;101229.00;6187379;22;44781;-93
2022/11/30 09:33:46;;;;;;;;;25.75;18.75;;;;;6.44;86.18;101500.44;6228502;22;45423;-91
2022/11/30 09:36:16;;;;;;;;;18.00;14.00;;;;;5.28;85.80;101296.94;6204865;22;45278;-90
2022/11/30 09:38:42;;;;;;;;;19.25;18.00;;;;;6.28;86.18;101452.13;6257794;22;45191;-93
2022/11/30 09:41:48;;;;;;;;;22.00;18.50;;;;;6.99;86.50;101565.88;6207690;22;44867;-93
2022/11/30 09:44:31;;;;;;;;;22.25;20.75;;;;;6.92;85.19;101531.63;6229167;22;47036;-94
2022/11/30 09:47:11;;;;;;;;;23.50;17.25;;;;;7.10;85.21;101551.06;6223155;22;45192;-93
2022/11/30 09:49:43;;;;;;;;;23.00;20.00;;;;;6.79;85.59;101499.94;6221354;22;45281;-93
2022/11/30 09:52:32;;;;;;;;;32.75;23.00;;;;;6.81;84.97;101501.72;6227767;22;44836;-92
2022/11/30 09:55:05;;;;;;;;;30.75;23.00;;;;;6.96;84.74;101506.25;6225468;22;48630;-90
2022/11/30 09:57:42;;;;;;;;;28.25;22.25;;;;;7.37;85.66;101555.72;6223552;22;45424;-90
2022/11/30 10:00:22;;;;;;;;;23.00;20.50;;;;;6.30;84.98;101372.50;6228007;22;45382;-89
2022/11/30 10:02:50;;;;;;;;;20.75;20.25;;;;;6.14;84.45;101339.94;6255643;22;45362;-90
2022/11/30 10:05:20;;;;;;;;;26.75;22.75;;;;;6.99;84.80;101468.63;6226630;22;48172;-89
2022/11/30 10:08:00;;;;;;;;;23.00;19.00;;;;;6.30;85.39;101355.84;6222276;22;45155;-90
2022/11/30 10:10:37;;;;;;;;;15.50;12.75;;;;;7.05;85.23;101468.66;6223629;22;45419;-90
2022/11/30 10:13:05;;;;;;;;;22.00;21.50;;;;;7.22;84.22;101490.72;6249711;22;45369;-90
2022/11/30 10:15:45;;;;;;;;;22.00;21.75;;;;;6.12;84.63;101289.19;6221281;22;45787;-90
2022/11/30 10:18:59;;;;;;;;;20.50;18.25;;;;;6.17;84.47;101287.47;6247663;22;45405;-93
2022/11/30 10:25:02;;;;;;;;;26.25;23.50;;;;;6.45;84.42;101308.72;6251406;22;45144;-92
2022/11/30 10:27:47;;;;;;;;;26.00;21.50;;;;;7.06;83.74;101407.31;6223678;22;46639;-93
2022/11/30 10:30:23;;;;;;;;;18.50;13.75;;;;;6.31;83.95;101268.34;6231759;22;45279;-93
2022/11/30 10:32:57;;;;;;;;;27.00;24.25;;;;;7.52;84.23;101486.56;6232695;22;45412;-91
2022/11/30 10:35:36;;;;;;;;;24.50;21.25;;;;;6.46;84.21;101299.97;6231080;22;44787;-91
2022/11/30 10:38:16;;;;;;;;;24.00;22.50;;;;;6.57;84.40;101328.97;6226055;22;46657;-92
2022/11/30 10:41:10;;;;;;;;;26.75;19.50;;;;;7.54;84.53;101486.56;6227619;22;44805;-91
2022/11/30 10:43:43;;;;;;;;;26.75;21.25;;;;;7.35;84.67;101438.19;6225610;22;45490;-92
2022/11/30 10:46:26;;;;;;;;;27.50;21.25;;;;;6.57;83.92;101298.34;6229072;22;45146;-92
2022/11/30 10:49:13;;;;;;;;;27.50;23.00;;;;;8.17;84.46;101536.97;6220213;22;47710;-92
2022/11/30 10:51:44;;;;;;;;;21.50;20.75;;;;;7.35;84.19;101385.59;6202208;22;46182;-92
2022/11/30 10:54:17;;;;;;;;;25.00;21.00;;;;;8.40;83.46;101530.94;6190914;22;45388;-92
2022/11/30 10:56:43;;;;;;;;;24.00;19.25;;;;;8.26;83.65;101476.44;6168732;22;45411;-90
2022/11/30 10:59:26;;;;;;;;;25.00;20.50;;;;;7.63;82.30;101332.25;6202620;22;47250;-92
2022/11/30 11:01:56;;;;;;;;;27.75;19.75;;;;;8.99;81.96;101527.63;6196166;22;45247;-93
2022/11/30 11:04:26;;;;;;;;;27.50;23.75;;;;;7.43;81.88;101205.06;6199565;22;45160;-92
2022/11/30 11:06:55;;;;;;;;;27.25;23.25;;;;;9.10;81.16;101461.69;6218551;22;45631;-92
2022/11/30 11:09:45;;;;;;;;;24.75;22.25;;;;;7.92;81.46;101228.81;6198336;22;47177;-92
2022/11/30 11:12:30;;;;;;;;;28.50;23.00;;;;;8.99;80.72;101376.44;6204227;22;45343;-91
2022/11/30 11:15:42;;;;;;;;;25.00;22.50;;;;;9.57;81.38;101492.44;6209735;22;44761;-96
2022/11/30 11:28:56;;;;;;;;;30.50;26.50;;;;;11.21;78.15;101510.25;6136075;23;45237;-92
2022/11/30 11:31:45;;;;;;;;;25.00;25.00;;;;;9.64;78.56;101274.25;6131813;23;45280;-93
2022/11/30 11:34:38;;;;;;;;;29.75;23.50;;;;;9.98;78.30;101329.50;6110299;23;45446;-93
2022/11/30 11:37:17;;;;;;;;;26.25;24.50;;;;;9.18;78.26;101224.31;6132284;23;45463;-93
2022/11/30 11:39:42;;;;;;;;;26.25;24.50;;;;;9.73;77.76;101319.09;6106626;23;45333;-94
2022/11/30 11:42:20;;;;;;;;;27.75;24.25;;;;;9.85;78.86;101372.69;6130925;23;45117;-93
2022/11/30 11:44:50;;;;;;;;;24.25;22.75;;;;;9.94;79.06;101404.34;6103486;23;47736;-93
2022/11/30 11:47:39;;;;;;;;;22.00;21.75;;;;;10.12;79.65;101449.16;6099596;23;45208;-92